createdAt,value
2018-01-15T00:01:16.215Z,2.50
2018-01-15T00:03:44.501Z,2.40
2018-01-15T00:06:12.808Z,2.50
2018-01-15T00:08:41.092Z,2.50
2018-01-15T00:11:08.993Z,2.40
2018-01-15T00:13:37.331Z,2.40
2018-01-15T00:16:04.869Z,2.40
2018-01-15T00:18:33.160Z,2.40
2018-01-15T00:21:00.674Z,2.40
2018-01-15T00:23:28.946Z,2.40
2018-01-15T00:25:56.863Z,2.40
2018-01-15T00:28:25.173Z,2.40
2018-01-15T00:30:54.202Z,2.40
2018-01-15T00:33:22.514Z,2.40
2018-01-15T00:35:50.428Z,2.40
2018-01-15T00:38:19.105Z,2.40
2018-01-15T00:40:47.047Z,2.40
2018-01-15T00:43:15.598Z,2.40
2018-01-15T00:45:43.647Z,2.40
2018-01-15T00:48:12.836Z,2.40
2018-01-15T00:50:40.358Z,2.30
2018-01-15T00:53:08.807Z,2.30
2018-01-15T00:55:37.089Z,2.30
2018-01-15T00:58:05.884Z,2.30
2018-01-15T01:00:33.838Z,2.30
2018-01-15T01:03:02.378Z,4.00
2018-01-15T01:05:30.288Z,2.30
2018-01-15T01:07:58.600Z,2.30
2018-01-15T01:10:28.629Z,2.30
2018-01-15T01:15:24.485Z,2.30
2018-01-15T01:17:52.437Z,2.20
2018-01-15T01:20:20.383Z,2.20
2018-01-15T01:22:48.712Z,2.20
2018-01-15T01:25:17.036Z,2.20
2018-01-15T01:27:45.393Z,2.20
2018-01-15T01:30:13.728Z,2.10
2018-01-15T01:32:42.172Z,2.10
2018-01-15T01:35:10.504Z,2.10
2018-01-15T01:37:38.837Z,2.10
2018-01-15T01:40:07.208Z,2.10
2018-01-15T01:42:35.544Z,2.00
2018-01-15T01:45:03.858Z,2.00
2018-01-15T01:47:32.188Z,2.00
2018-01-15T01:50:00.519Z,2.10
2018-01-15T01:52:28.834Z,2.10
2018-01-15T01:54:57.159Z,2.10
2018-01-15T01:57:25.482Z,2.10
2018-01-15T01:59:53.839Z,2.10
2018-01-15T02:02:22.159Z,2.10
2018-01-15T02:04:50.499Z,2.10
2018-01-15T02:07:18.940Z,2.00
2018-01-15T02:09:47.280Z,2.00
2018-01-15T02:12:15.598Z,2.00
2018-01-15T02:14:43.938Z,1.90
2018-01-15T02:17:12.255Z,2.00
2018-01-15T02:19:40.591Z,1.90
2018-01-15T02:22:08.906Z,1.90
2018-01-15T02:24:37.250Z,1.90
2018-01-15T02:27:06.309Z,1.80
2018-01-15T02:29:33.898Z,1.80
2018-01-15T02:32:01.451Z,1.80
2018-01-15T02:34:29.418Z,1.80
2018-01-15T02:36:57.737Z,1.80
2018-01-15T02:39:26.063Z,1.80
2018-01-15T02:41:54.386Z,1.80
2018-01-15T02:44:22.724Z,1.80
2018-01-15T02:46:51.047Z,1.80
2018-01-15T02:49:19.453Z,1.80
2018-01-15T02:51:47.787Z,1.90
2018-01-15T02:54:16.123Z,1.80
2018-01-15T02:56:44.484Z,1.80
2018-01-15T02:59:12.992Z,1.80
2018-01-15T03:01:41.058Z,1.80
2018-01-15T03:04:09.404Z,1.80
2018-01-15T03:06:37.717Z,1.80
2018-01-15T03:09:06.051Z,1.80
2018-01-15T03:11:34.360Z,1.90
2018-01-15T03:14:02.674Z,1.90
2018-01-15T03:16:30.256Z,1.90
2018-01-15T03:18:58.203Z,1.90
2018-01-15T03:21:26.552Z,1.80
2018-01-15T03:23:54.879Z,1.80
2018-01-15T03:26:23.210Z,1.70
2018-01-15T03:28:51.551Z,1.70
2018-01-15T03:31:19.897Z,1.60
2018-01-15T03:33:48.208Z,1.60
2018-01-15T03:36:16.551Z,1.60
2018-01-15T03:38:44.873Z,1.60
2018-01-15T03:41:13.207Z,1.60
2018-01-15T03:43:41.531Z,1.70
2018-01-15T03:46:09.882Z,1.80
2018-01-15T03:48:38.198Z,1.80
2018-01-15T03:51:06.543Z,1.70
2018-01-15T03:53:34.857Z,1.80
2018-01-15T03:56:03.316Z,1.70
2018-01-15T03:58:31.634Z,1.70
2018-01-15T04:01:00.709Z,1.70
2018-01-15T04:03:28.250Z,1.70
2018-01-15T04:05:56.591Z,1.70
2018-01-15T04:08:24.906Z,1.60
2018-01-15T04:10:53.243Z,1.70
2018-01-15T04:13:21.663Z,1.90
2018-01-15T04:15:50.011Z,2.00
2018-01-15T04:18:18.332Z,2.20
2018-01-15T04:20:46.668Z,2.20
2018-01-15T04:23:14.988Z,2.10
2018-01-15T04:25:43.348Z,2.10
2018-01-15T04:28:11.661Z,2.20
2018-01-15T04:30:39.219Z,2.30
2018-01-15T04:33:07.193Z,2.40
2018-01-15T04:35:35.554Z,2.40
2018-01-15T04:38:03.562Z,2.30
2018-01-15T04:40:31.882Z,2.40
2018-01-15T04:43:00.222Z,2.40
2018-01-15T04:45:28.641Z,2.50
2018-01-15T04:47:56.978Z,2.50
2018-01-15T04:50:25.395Z,2.40
2018-01-15T04:52:53.735Z,2.50
2018-01-15T04:55:22.066Z,2.50
2018-01-15T04:57:50.973Z,2.60
2018-01-15T05:00:18.910Z,2.30
2018-01-15T05:02:47.237Z,2.30
2018-01-15T05:05:15.560Z,2.40
2018-01-15T05:07:43.894Z,2.50
2018-01-15T05:10:12.214Z,2.50
2018-01-15T05:12:40.552Z,2.60
2018-01-15T05:15:09.010Z,2.70
2018-01-15T05:17:37.350Z,2.70
2018-01-15T05:20:05.661Z,2.70
2018-01-15T05:22:33.997Z,2.80
2018-01-15T05:25:02.310Z,2.80
2018-01-15T05:27:30.652Z,2.90
2018-01-15T05:29:58.967Z,2.90
2018-01-15T05:32:27.303Z,2.90
2018-01-15T05:34:55.606Z,2.90
2018-01-15T05:37:23.938Z,2.90
2018-01-15T05:39:52.373Z,2.90
2018-01-15T05:42:20.721Z,2.90
2018-01-15T05:44:49.039Z,2.90
2018-01-15T05:47:17.376Z,3.00
2018-01-15T05:49:45.696Z,3.00
2018-01-15T05:52:14.047Z,3.00
2018-01-15T05:54:42.383Z,3.00
2018-01-15T05:57:10.719Z,3.00
2018-01-15T05:59:39.040Z,3.00
2018-01-15T06:02:07.378Z,3.00
2018-01-15T06:04:35.755Z,3.00
2018-01-15T06:07:04.070Z,3.10
2018-01-15T06:09:32.406Z,3.10
2018-01-15T06:12:00.771Z,3.10
2018-01-15T06:14:29.106Z,3.10
2018-01-15T06:17:01.456Z,3.10
2018-01-15T06:19:30.551Z,3.20
2018-01-15T06:21:58.176Z,3.20
2018-01-15T06:24:26.523Z,3.30
2018-01-15T06:26:54.842Z,3.30
2018-01-15T06:29:23.184Z,3.40
2018-01-15T06:31:50.751Z,3.40
2018-01-15T06:34:18.845Z,3.30
2018-01-15T06:36:46.809Z,3.40
2018-01-15T06:39:14.374Z,3.40
2018-01-15T06:41:42.324Z,3.50
2018-01-15T06:44:10.654Z,3.50
2018-01-15T06:46:39.715Z,3.50
2018-01-15T06:49:07.343Z,3.40
2018-01-15T06:51:35.666Z,3.40
2018-01-15T06:54:04.007Z,3.40
2018-01-15T06:56:32.359Z,3.40
2018-01-15T06:59:00.696Z,3.20
2018-01-15T07:01:29.050Z,3.40
2018-01-15T07:03:57.400Z,3.40
2018-01-15T07:06:25.798Z,3.30
2018-01-15T07:08:54.137Z,3.40
2018-01-15T07:11:22.455Z,3.40
2018-01-15T07:13:50.792Z,3.40
2018-01-15T07:16:19.124Z,3.40
2018-01-15T07:18:47.464Z,3.40
2018-01-15T07:21:15.782Z,3.40
2018-01-15T07:23:44.129Z,3.40
2018-01-15T07:26:12.542Z,3.40
2018-01-15T07:28:40.956Z,3.40
2018-01-15T07:31:09.273Z,3.40
2018-01-15T07:33:37.600Z,3.40
2018-01-15T07:36:05.941Z,3.40
2018-01-15T07:38:34.255Z,3.40
2018-01-15T07:41:02.705Z,3.40
2018-01-15T07:43:31.014Z,3.40
2018-01-15T07:45:59.362Z,3.50
2018-01-15T07:48:27.671Z,3.50
2018-01-15T07:50:56.015Z,3.60
2018-01-15T07:53:24.335Z,3.60
2018-01-15T07:55:53.430Z,3.60
2018-01-15T07:58:21.379Z,3.60
2018-01-15T08:00:49.433Z,3.60
2018-01-15T08:03:17.744Z,3.60
2018-01-15T08:05:46.834Z,3.60
2018-01-15T08:08:14.677Z,3.70
2018-01-15T08:10:43.398Z,3.80
2018-01-15T08:13:10.952Z,3.80
2018-01-15T08:15:40.086Z,3.80
2018-01-15T08:18:08.402Z,3.80
2018-01-15T08:20:35.972Z,3.80
2018-01-15T08:23:03.541Z,3.90
2018-01-15T08:25:31.506Z,4.00
2018-01-15T08:27:59.847Z,3.90
2018-01-15T08:30:28.192Z,3.90
2018-01-15T08:32:56.589Z,3.90
2018-01-15T08:35:24.565Z,4.00
2018-01-15T08:37:52.137Z,4.00
2018-01-15T08:40:20.849Z,4.10
2018-01-15T08:42:48.612Z,4.20
2018-01-15T08:45:16.664Z,4.30
2018-01-15T08:47:44.977Z,4.40
2018-01-15T08:50:13.312Z,4.40
2018-01-15T08:52:40.871Z,4.30
2018-01-15T08:55:08.974Z,4.30
2018-01-15T08:57:36.933Z,4.00
2018-01-15T09:00:04.484Z,4.20
2018-01-15T09:02:32.450Z,4.30
2018-01-15T09:05:00.772Z,4.30
2018-01-15T09:07:29.106Z,4.40
2018-01-15T09:09:57.419Z,4.60
2018-01-15T09:12:25.753Z,4.60
2018-01-15T09:14:54.070Z,4.70
2018-01-15T09:17:23.151Z,4.90
2018-01-15T09:19:50.720Z,5.00
2018-01-15T09:22:19.066Z,5.20
2018-01-15T09:24:47.443Z,5.40
2018-01-15T09:27:15.765Z,5.40
2018-01-15T09:29:44.100Z,5.40
2018-01-15T09:32:12.433Z,5.70
2018-01-15T09:34:40.857Z,5.80
2018-01-15T09:37:09.190Z,6.00
2018-01-15T09:39:37.512Z,5.90
2018-01-15T09:42:05.856Z,5.80
2018-01-15T09:44:34.172Z,5.50
2018-01-15T09:47:02.502Z,5.70
2018-01-15T09:49:30.926Z,5.40
2018-01-15T09:51:59.290Z,5.30
2018-01-15T09:54:27.258Z,5.50
2018-01-15T09:56:54.808Z,5.60
2018-01-15T09:59:22.776Z,5.30
2018-01-15T10:01:51.182Z,5.60
2018-01-15T10:04:19.171Z,5.80
2018-01-15T10:06:46.718Z,6.00
2018-01-15T10:09:14.682Z,5.60
2018-01-15T10:11:42.247Z,5.40
2018-01-15T10:14:10.229Z,5.50
2018-01-15T10:16:38.543Z,5.60
2018-01-15T10:19:06.884Z,5.90
2018-01-15T10:21:35.218Z,6.10
2018-01-15T10:24:03.523Z,6.30
2018-01-15T10:26:31.871Z,6.30
2018-01-15T10:29:00.181Z,6.20
2018-01-15T10:31:28.507Z,6.40
2018-01-15T10:33:56.836Z,6.30
2018-01-15T10:36:25.898Z,5.90
2018-01-15T10:38:53.444Z,5.70
2018-01-15T10:41:21.778Z,5.50
2018-01-15T10:43:50.213Z,5.40
2018-01-15T10:46:18.542Z,5.70
2018-01-15T10:48:46.882Z,5.90
2018-01-15T10:51:14.418Z,5.70
2018-01-15T10:53:41.982Z,6.10
2018-01-15T10:56:09.536Z,6.50
2018-01-15T10:58:37.635Z,6.40
2018-01-15T11:01:12.124Z,6.40
2018-01-15T11:03:39.795Z,6.40
2018-01-15T11:06:07.760Z,6.50
2018-01-15T11:08:35.356Z,6.70
2018-01-15T11:11:03.389Z,7.00
2018-01-15T11:13:31.718Z,6.90
2018-01-15T11:16:00.118Z,7.00
2018-01-15T11:18:29.180Z,6.90
2018-01-15T11:20:56.739Z,6.70
2018-01-15T11:23:24.979Z,6.60
2018-01-15T11:25:52.528Z,6.20
2018-01-15T11:28:20.507Z,6.20
2018-01-15T11:30:48.838Z,6.40
2018-01-15T11:33:17.256Z,6.40
2018-01-15T11:35:45.573Z,6.50
2018-01-15T11:38:13.902Z,6.20
2018-01-15T11:40:42.211Z,6.00
2018-01-15T11:43:10.176Z,6.10
2018-01-15T11:45:37.716Z,6.40
2018-01-15T11:48:05.691Z,6.10
2018-01-15T11:50:34.011Z,5.80
2018-01-15T11:53:03.124Z,5.70
2018-01-15T11:55:31.447Z,5.90
2018-01-15T11:57:58.984Z,6.10
2018-01-15T12:00:26.551Z,6.20
2018-01-15T12:02:54.865Z,6.40
2018-01-15T12:05:22.842Z,6.80
2018-01-15T12:07:52.002Z,6.70
2018-01-15T12:10:19.566Z,6.20
2018-01-15T12:12:47.878Z,6.40
2018-01-15T12:15:16.215Z,6.80
2018-01-15T12:17:44.532Z,6.90
2018-01-15T12:20:13.620Z,6.90
2018-01-15T12:22:42.784Z,6.80
2018-01-15T12:25:10.788Z,6.60
2018-01-15T12:27:38.339Z,6.50
2018-01-15T12:30:06.295Z,6.50
2018-01-15T12:32:34.620Z,6.30
2018-01-15T12:35:02.961Z,6.50
2018-01-15T12:37:31.320Z,6.40
2018-01-15T12:39:59.647Z,6.30
2018-01-15T12:42:27.971Z,7.10
2018-01-15T13:02:20.119Z,8.90
2018-01-15T13:04:48.499Z,9.40
2018-01-15T13:07:28.714Z,9.60
2018-01-15T13:09:56.683Z,9.30
2018-01-15T13:12:24.820Z,9.20
2018-01-15T13:14:53.243Z,9.00
2018-01-15T13:17:21.248Z,9.00
2018-01-15T13:19:48.804Z,8.70
2018-01-15T13:22:17.512Z,8.60
2018-01-15T13:24:45.051Z,8.70
2018-01-15T13:27:13.404Z,8.50
2018-01-15T13:29:41.720Z,8.60
2018-01-15T13:32:10.049Z,8.80
2018-01-15T13:34:38.366Z,8.70
2018-01-15T13:37:06.695Z,8.60
2018-01-15T13:39:35.015Z,8.30
2018-01-15T13:42:03.344Z,8.40
2018-01-15T13:44:31.657Z,8.40
2018-01-15T13:46:59.228Z,8.40
2018-01-15T13:49:27.181Z,8.60
2018-01-15T13:51:55.509Z,8.60
2018-01-15T13:54:24.570Z,8.40
2018-01-15T13:56:52.150Z,8.50
2018-01-15T13:59:20.461Z,8.30
2018-01-15T14:01:48.787Z,8.40
2018-01-15T14:04:17.110Z,8.50
2018-01-15T14:06:45.496Z,8.60
2018-01-15T14:09:14.521Z,8.40
2018-01-15T14:11:42.492Z,8.30
2018-01-15T14:14:10.455Z,8.20
2018-01-15T14:16:38.793Z,8.40
2018-01-15T14:19:07.126Z,8.30
2018-01-15T14:21:35.526Z,8.50
2018-01-15T14:24:03.870Z,8.50
2018-01-15T14:26:32.198Z,8.60
2018-01-15T14:29:00.627Z,8.60
2018-01-15T14:31:29.004Z,8.40
2018-01-15T14:33:57.307Z,8.50
2018-01-15T14:36:25.644Z,8.50
2018-01-15T14:38:53.955Z,8.50
2018-01-15T14:41:22.278Z,8.50
2018-01-15T14:43:50.691Z,8.60
2018-01-15T14:46:19.000Z,8.60
2018-01-15T14:48:47.348Z,8.60
2018-01-15T14:51:15.657Z,8.50
2018-01-15T14:53:43.984Z,8.50
2018-01-15T14:56:13.036Z,8.20
2018-01-15T14:58:40.697Z,8.20
2018-01-15T15:01:09.022Z,8.20
2018-01-15T15:03:37.454Z,8.30
2018-01-15T15:06:05.788Z,8.30
2018-01-15T15:08:34.126Z,8.30
2018-01-15T15:11:02.434Z,8.30
2018-01-15T15:13:30.759Z,8.20
2018-01-15T15:15:59.078Z,8.20
2018-01-15T15:18:27.414Z,8.20
2018-01-15T15:20:55.732Z,8.20
2018-01-15T15:23:24.073Z,8.20
2018-01-15T15:25:52.376Z,8.20
2018-01-15T15:28:19.942Z,8.10
2018-01-15T15:30:47.891Z,8.00
2018-01-15T15:33:16.234Z,8.00
2018-01-15T15:35:44.547Z,8.00
2018-01-15T15:38:12.882Z,8.00
2018-01-15T15:40:41.191Z,8.10
2018-01-15T15:43:09.519Z,8.10
2018-01-15T15:45:37.830Z,8.00
2018-01-15T15:48:06.155Z,8.00
2018-01-15T15:50:35.208Z,8.00
2018-01-15T15:53:02.880Z,8.00
2018-01-15T15:55:31.181Z,7.90
2018-01-15T15:57:59.522Z,7.90
2018-01-15T16:00:27.845Z,7.90
2018-01-15T16:02:56.914Z,7.90
2018-01-15T16:05:24.566Z,7.90
2018-01-15T16:07:53.109Z,7.90
2018-01-15T16:10:21.052Z,7.90
2018-01-15T16:12:48.671Z,7.90
2018-01-15T16:15:16.987Z,7.90
2018-01-15T16:17:44.926Z,7.90
2018-01-15T16:20:13.266Z,7.80
2018-01-15T16:22:53.634Z,7.90
2018-01-15T16:25:21.966Z,7.90
2018-01-15T16:27:49.503Z,7.90
2018-01-15T16:30:17.836Z,8.00
2018-01-15T16:32:46.138Z,8.00
2018-01-15T16:35:14.460Z,8.00
2018-01-15T16:37:42.782Z,8.10
2018-01-15T16:40:11.162Z,8.10
2018-01-15T16:42:39.475Z,8.10
2018-01-15T16:45:07.794Z,8.00
2018-01-15T16:47:36.107Z,7.90
2018-01-15T16:50:10.065Z,7.90
2018-01-15T16:52:38.467Z,8.00
2018-01-15T16:55:06.794Z,8.00
2018-01-15T16:57:35.106Z,8.00
2018-01-15T17:00:03.502Z,8.10
2018-01-15T17:02:31.787Z,8.10
2018-01-15T17:05:00.152Z,7.80
2018-01-15T17:07:28.488Z,7.80
2018-01-15T17:09:56.817Z,7.80
2018-01-15T17:12:25.189Z,7.90
2018-01-15T17:14:53.526Z,7.70
2018-01-15T17:17:21.840Z,7.40
2018-01-15T17:19:50.250Z,7.30
2018-01-15T17:22:18.560Z,7.50
2018-01-15T17:24:46.886Z,7.80
2018-01-15T17:27:15.191Z,7.80
2018-01-15T17:29:43.526Z,7.80
2018-01-15T17:32:11.851Z,7.90
2018-01-15T17:34:40.186Z,7.90
2018-01-15T17:37:08.488Z,7.80
2018-01-15T17:39:36.826Z,8.00
2018-01-15T17:42:05.157Z,8.00
2018-01-15T17:44:33.468Z,7.90
2018-01-15T17:47:01.048Z,8.10
2018-01-15T17:49:28.986Z,8.10
2018-01-15T17:51:57.318Z,8.00
2018-01-15T17:54:25.720Z,8.10
2018-01-15T17:56:53.672Z,8.10
2018-01-15T17:59:21.973Z,8.20
2018-01-15T18:01:50.346Z,8.30
2018-01-15T18:04:18.670Z,8.30
2018-01-15T18:06:46.627Z,8.20
2018-01-15T18:09:14.177Z,8.30
2018-01-15T18:11:42.503Z,8.40
2018-01-15T18:14:10.815Z,8.40
2018-01-15T18:16:39.143Z,8.40
2018-01-15T18:19:07.559Z,8.40
2018-01-15T18:21:35.913Z,8.40
2018-01-15T18:24:04.227Z,8.30
2018-01-15T18:26:32.558Z,8.30
2018-01-15T18:29:00.868Z,8.10
2018-01-15T18:31:29.248Z,8.10
2018-01-15T18:33:57.552Z,8.20
2018-01-15T18:36:25.890Z,8.20
2018-01-15T18:38:54.202Z,8.30
2018-01-15T18:41:22.626Z,8.30
2018-01-15T18:43:51.039Z,8.30
2018-01-15T18:46:19.369Z,8.30
2018-01-15T18:48:47.678Z,8.30
2018-01-15T18:51:16.009Z,8.20
2018-01-15T18:53:45.072Z,8.30
2018-01-15T18:56:12.727Z,8.30
2018-01-15T18:58:41.034Z,8.40
2018-01-15T19:01:09.381Z,8.40
2018-01-15T19:03:37.690Z,8.40
2018-01-15T19:06:06.037Z,8.50
2018-01-15T19:08:34.341Z,8.40
2018-01-15T19:11:02.646Z,8.40
2018-01-15T19:13:31.070Z,8.00
2018-01-15T19:15:59.384Z,7.90
2018-01-15T19:18:28.462Z,8.00
2018-01-15T19:20:56.048Z,7.80
2018-01-15T19:23:24.406Z,8.00
2018-01-15T19:25:52.718Z,7.80
2018-01-15T19:28:21.042Z,7.80
2018-01-15T19:30:49.358Z,7.90
2018-01-15T19:33:16.948Z,7.60
2018-01-15T19:38:45.035Z,7.60
2018-01-15T19:41:13.410Z,7.40
2018-01-15T19:44:02.520Z,7.30
2018-01-15T19:46:37.154Z,7.30
2018-01-15T19:49:10.466Z,7.20
2018-01-15T19:51:44.191Z,7.10
2018-01-15T19:54:18.261Z,7.20
2018-01-15T19:56:52.394Z,7.10
2018-01-15T19:59:25.962Z,7.10
2018-01-15T20:01:59.939Z,7.10
2018-01-15T20:04:33.662Z,7.10
2018-01-15T20:07:07.890Z,7.10
2018-01-15T20:09:41.580Z,7.00
2018-01-15T20:12:09.558Z,6.90
2018-01-15T20:14:37.940Z,6.80
2018-01-15T20:17:06.279Z,6.90
2018-01-15T20:19:34.695Z,6.80
2018-01-15T20:22:03.051Z,6.70
2018-01-15T20:24:31.393Z,6.50
2018-01-15T20:26:59.752Z,6.40
2018-01-15T20:29:28.120Z,6.40
2018-01-15T20:31:56.443Z,6.40
2018-01-15T20:34:24.865Z,6.30
2018-01-15T20:36:53.170Z,6.10
2018-01-15T20:39:21.502Z,6.20
2018-01-15T20:41:49.874Z,6.40
2018-01-15T20:44:18.214Z,6.60
2018-01-15T20:46:46.554Z,6.70
2018-01-15T20:49:14.941Z,6.60
2018-01-15T20:51:43.306Z,6.60
2018-01-15T20:54:11.676Z,6.60
2018-01-15T20:56:40.050Z,6.50
2018-01-15T20:59:08.432Z,6.70
2018-01-15T21:01:36.417Z,6.90
2018-01-15T21:04:03.998Z,6.90
2018-01-15T21:06:31.665Z,6.90
2018-01-15T21:08:59.223Z,6.90
2018-01-15T21:11:27.196Z,7.10
2018-01-15T21:13:55.587Z,7.00
2018-01-15T21:16:23.901Z,7.30
2018-01-15T21:18:52.282Z,7.00
2018-01-15T21:21:20.633Z,7.00
2018-01-15T21:23:49.149Z,6.90
2018-01-15T21:26:17.124Z,6.80
2018-01-15T21:28:45.515Z,6.70
2018-01-15T21:31:13.900Z,6.60
2018-01-15T21:33:42.221Z,6.60
2018-01-15T21:36:10.542Z,6.60
2018-01-15T21:38:38.888Z,6.50
2018-01-15T21:41:07.252Z,6.60
2018-01-15T21:43:35.615Z,6.60
2018-01-15T21:46:03.980Z,6.60
2018-01-15T21:48:32.296Z,6.70
2018-01-15T21:51:00.668Z,6.70
2018-01-15T21:53:29.093Z,6.80
2018-01-15T21:55:57.460Z,6.80
2018-01-15T21:58:25.810Z,6.90
2018-01-15T22:00:54.148Z,6.90
2018-01-15T22:03:22.464Z,6.90
2018-01-15T22:05:50.794Z,6.90
2018-01-15T22:08:19.094Z,6.90
2018-01-15T22:10:47.840Z,6.90
2018-01-15T22:13:15.769Z,6.90
2018-01-15T22:15:44.193Z,7.00
2018-01-15T22:18:12.502Z,7.00
2018-01-15T22:20:40.834Z,7.00
2018-01-15T22:23:09.135Z,7.00
2018-01-15T22:25:37.453Z,7.00
2018-01-15T22:28:05.791Z,7.10
2018-01-15T22:30:34.160Z,7.10
2018-01-15T22:33:02.488Z,7.10
2018-01-15T22:35:31.017Z,7.10
2018-01-15T22:37:59.330Z,7.20
2018-01-15T22:40:27.654Z,7.10
2018-01-15T22:42:56.076Z,7.10
2018-01-15T22:45:24.394Z,7.10
2018-01-15T22:47:52.775Z,7.10
2018-01-15T22:50:21.101Z,7.10
2018-01-15T22:52:49.415Z,7.10
2018-01-15T22:55:17.743Z,7.20
2018-01-15T22:57:46.053Z,7.20
2018-01-15T23:00:14.396Z,7.20
2018-01-15T23:02:42.702Z,7.20
2018-01-15T23:05:11.050Z,7.20
2018-01-15T23:07:39.387Z,7.30
2018-01-15T23:10:07.719Z,7.30
2018-01-15T23:12:36.026Z,7.20
2018-01-15T23:15:05.092Z,7.30
2018-01-15T23:17:32.742Z,7.30
2018-01-15T23:20:01.115Z,7.20
2018-01-15T23:22:29.448Z,7.20
2018-01-15T23:24:57.770Z,7.20
2018-01-15T23:27:26.096Z,7.10
2018-01-15T23:29:54.426Z,7.10
2018-01-15T23:32:22.926Z,7.20
2018-01-15T23:34:51.303Z,7.20
2018-01-15T23:37:19.631Z,7.20
2018-01-15T23:39:47.940Z,7.20
2018-01-15T23:42:16.286Z,7.20
2018-01-15T23:44:44.698Z,7.20
2018-01-15T23:47:13.022Z,7.30
2018-01-15T23:49:43.098Z,7.30
2018-01-15T23:52:11.075Z,7.30
2018-01-15T23:54:39.383Z,7.30
2018-01-15T23:57:07.723Z,7.30
2018-01-15T23:59:36.027Z,7.30
